sensor_id;sensor_type;location;lat;lon;timestamp;temperature;humidity
52321;DHT22;38261;54.090;13.382;2023-11-21T00:01:12;6.90;99.90
52321;DHT22;38261;54.090;13.382;2023-11-21T00:02:35;6.90;99.90
52321;DHT22;38261;54.090;13.382;2023-11-21T00:03:57;6.90;99.90
52321;DHT22;38261;54.090;13.382;2023-11-21T00:05:19;6.90;99.90
52321;DHT22;38261;54.090;13.382;2023-11-21T00:06:41;7.00;99.90
52321;DHT22;38261;54.090;13.382;2023-11-21T00:08:04;7.00;99.90
52321;DHT22;38261;54.090;13.382;2023-11-21T00:09:27;7.00;99.90
52321;DHT22;38261;54.090;13.382;2023-11-21T00:10:49;7.00;99.90
52321;DHT22;38261;54.090;13.382;2023-11-21T00:12:11;7.00;99.90
52321;DHT22;38261;54.090;13.382;2023-11-21T00:13:35;7.00;99.90
52321;DHT22;38261;54.090;13.382;2023-11-21T00:14:58;7.00;99.90
52321;DHT22;38261;54.090;13.382;2023-11-21T00:16:20;7.00;99.90
52321;DHT22;38261;54.090;13.382;2023-11-21T00:17:44;7.00;99.90
52321;DHT22;38261;54.090;13.382;2023-11-21T00:19:06;7.00;99.90
52321;DHT22;38261;54.090;13.382;2023-11-21T00:20:28;7.00;99.90
52321;DHT22;38261;54.090;13.382;2023-11-21T00:21:50;7.00;99.90
52321;DHT22;38261;54.090;13.382;2023-11-21T00:23:12;7.00;99.90
52321;DHT22;38261;54.090;13.382;2023-11-21T00:24:35;6.90;99.90
52321;DHT22;38261;54.090;13.382;2023-11-21T00:25:57;6.90;99.90
52321;DHT22;38261;54.090;13.382;2023-11-21T00:27:19;6.90;99.90
52321;DHT22;38261;54.090;13.382;2023-11-21T00:28:42;6.90;99.90
52321;DHT22;38261;54.090;13.382;2023-11-21T00:30:05;6.90;99.90
52321;DHT22;38261;54.090;13.382;2023-11-21T00:31:28;6.90;99.90
52321;DHT22;38261;54.090;13.382;2023-11-21T00:32:50;7.00;99.90
52321;DHT22;38261;54.090;13.382;2023-11-21T00:34:12;7.00;99.90
52321;DHT22;38261;54.090;13.382;2023-11-21T00:35:35;6.90;99.90
52321;DHT22;38261;54.090;13.382;2023-11-21T00:36:57;7.00;99.90
52321;DHT22;38261;54.090;13.382;2023-11-21T00:38:19;6.90;99.90
52321;DHT22;38261;54.090;13.382;2023-11-21T00:39:42;6.90;99.90
52321;DHT22;38261;54.090;13.382;2023-11-21T00:41:04;6.90;99.90
52321;DHT22;38261;54.090;13.382;2023-11-21T00:42:26;6.90;99.90
52321;DHT22;38261;54.090;13.382;2023-11-21T00:43:49;6.90;99.90
52321;DHT22;38261;54.090;13.382;2023-11-21T00:45:12;6.80;99.90
52321;DHT22;38261;54.090;13.382;2023-11-21T00:46:35;6.80;99.90
52321;DHT22;38261;54.090;13.382;2023-11-21T00:47:57;6.80;99.90
52321;DHT22;38261;54.090;13.382;2023-11-21T00:49:20;6.80;99.90
52321;DHT22;38261;54.090;13.382;2023-11-21T00:50:42;6.80;99.90
52321;DHT22;38261;54.090;13.382;2023-11-21T00:52:06;6.80;99.90
52321;DHT22;38261;54.090;13.382;2023-11-21T00:53:28;6.90;99.90
52321;DHT22;38261;54.090;13.382;2023-11-21T00:54:50;6.90;99.90
52321;DHT22;38261;54.090;13.382;2023-11-21T00:56:12;6.90;99.90
52321;DHT22;38261;54.090;13.382;2023-11-21T00:57:35;6.80;99.90
52321;DHT22;38261;54.090;13.382;2023-11-21T00:58:58;6.80;99.90
52321;DHT22;38261;54.090;13.382;2023-11-21T01:00:20;6.80;99.90
52321;DHT22;38261;54.090;13.382;2023-11-21T01:01:42;6.90;99.90
52321;DHT22;38261;54.090;13.382;2023-11-21T01:03:05;6.90;99.90
52321;DHT22;38261;54.090;13.382;2023-11-21T01:04:27;6.90;99.90
52321;DHT22;38261;54.090;13.382;2023-11-21T01:05:50;6.80;99.90
52321;DHT22;38261;54.090;13.382;2023-11-21T01:07:12;6.80;99.90
52321;DHT22;38261;54.090;13.382;2023-11-21T01:08:35;6.80;99.90
52321;DHT22;38261;54.090;13.382;2023-11-21T01:09:58;6.70;99.90
52321;DHT22;38261;54.090;13.382;2023-11-21T01:11:20;6.70;99.90
52321;DHT22;38261;54.090;13.382;2023-11-21T01:12:42;6.70;99.90
52321;DHT22;38261;54.090;13.382;2023-11-21T01:14:04;6.70;99.90
52321;DHT22;38261;54.090;13.382;2023-11-21T01:15:27;6.80;99.90
52321;DHT22;38261;54.090;13.382;2023-11-21T01:16:49;6.70;99.90
52321;DHT22;38261;54.090;13.382;2023-11-21T01:18:11;6.70;99.90
52321;DHT22;38261;54.090;13.382;2023-11-21T01:19:33;6.70;99.90
52321;DHT22;38261;54.090;13.382;2023-11-21T01:20:56;6.80;99.90
52321;DHT22;38261;54.090;13.382;2023-11-21T01:22:19;6.70;99.90
52321;DHT22;38261;54.090;13.382;2023-11-21T01:23:47;6.80;99.90
52321;DHT22;38261;54.090;13.382;2023-11-21T01:25:10;6.80;99.90
52321;DHT22;38261;54.090;13.382;2023-11-21T01:26:33;6.80;99.90
52321;DHT22;38261;54.090;13.382;2023-11-21T01:27:55;6.80;99.90
52321;DHT22;38261;54.090;13.382;2023-11-21T01:29:18;6.80;99.90
52321;DHT22;38261;54.090;13.382;2023-11-21T01:30:40;6.70;99.90
52321;DHT22;38261;54.090;13.382;2023-11-21T01:32:03;6.70;99.90
52321;DHT22;38261;54.090;13.382;2023-11-21T01:33:26;6.70;99.90
52321;DHT22;38261;54.090;13.382;2023-11-21T01:34:49;6.70;99.90
52321;DHT22;38261;54.090;13.382;2023-11-21T01:36:12;6.70;99.90
52321;DHT22;38261;54.090;13.382;2023-11-21T01:37:34;6.70;99.90
52321;DHT22;38261;54.090;13.382;2023-11-21T01:38:56;6.70;99.90
52321;DHT22;38261;54.090;13.382;2023-11-21T01:40:21;6.70;99.90
52321;DHT22;38261;54.090;13.382;2023-11-21T01:41:43;6.70;99.90
52321;DHT22;38261;54.090;13.382;2023-11-21T01:43:06;6.70;99.90
52321;DHT22;38261;54.090;13.382;2023-11-21T01:44:30;6.70;99.90
52321;DHT22;38261;54.090;13.382;2023-11-21T01:45:54;6.60;99.90
52321;DHT22;38261;54.090;13.382;2023-11-21T01:47:18;6.60;99.90
52321;DHT22;38261;54.090;13.382;2023-11-21T01:48:41;6.60;99.90
52321;DHT22;38261;54.090;13.382;2023-11-21T01:50:04;6.60;99.90
52321;DHT22;38261;54.090;13.382;2023-11-21T01:51:28;6.60;99.90
52321;DHT22;38261;54.090;13.382;2023-11-21T01:52:50;6.60;99.90
52321;DHT22;38261;54.090;13.382;2023-11-21T01:54:13;6.60;99.90
52321;DHT22;38261;54.090;13.382;2023-11-21T01:55:40;6.60;99.90
52321;DHT22;38261;54.090;13.382;2023-11-21T01:57:05;6.60;99.90
52321;DHT22;38261;54.090;13.382;2023-11-21T01:58:28;6.60;99.90
52321;DHT22;38261;54.090;13.382;2023-11-21T01:59:53;6.60;99.90
52321;DHT22;38261;54.090;13.382;2023-11-21T02:01:16;6.60;99.90
52321;DHT22;38261;54.090;13.382;2023-11-21T02:02:44;6.60;99.90
52321;DHT22;38261;54.090;13.382;2023-11-21T02:04:06;6.70;99.90
52321;DHT22;38261;54.090;13.382;2023-11-21T02:05:30;6.60;99.90
52321;DHT22;38261;54.090;13.382;2023-11-21T02:06:52;6.60;99.90
52321;DHT22;38261;54.090;13.382;2023-11-21T02:08:16;6.70;99.90
52321;DHT22;38261;54.090;13.382;2023-11-21T02:09:38;6.70;99.90
52321;DHT22;38261;54.090;13.382;2023-11-21T02:11:04;6.60;99.90
52321;DHT22;38261;54.090;13.382;2023-11-21T02:12:27;6.70;99.90
52321;DHT22;38261;54.090;13.382;2023-11-21T02:13:49;6.60;99.90
52321;DHT22;38261;54.090;13.382;2023-11-21T02:15:15;6.70;99.90
52321;DHT22;38261;54.090;13.382;2023-11-21T02:16:38;6.70;99.90
52321;DHT22;38261;54.090;13.382;2023-11-21T02:18:00;6.70;99.90
52321;DHT22;38261;54.090;13.382;2023-11-21T02:19:25;6.70;99.90
52321;DHT22;38261;54.090;13.382;2023-11-21T02:20:47;6.60;99.90
52321;DHT22;38261;54.090;13.382;2023-11-21T02:22:11;6.60;99.90
52321;DHT22;38261;54.090;13.382;2023-11-21T02:23:33;6.60;99.90
52321;DHT22;38261;54.090;13.382;2023-11-21T02:24:56;6.60;99.90
52321;DHT22;38261;54.090;13.382;2023-11-21T02:26:19;6.60;99.90
52321;DHT22;38261;54.090;13.382;2023-11-21T02:27:42;6.60;99.90
52321;DHT22;38261;54.090;13.382;2023-11-21T02:29:05;6.60;99.90
52321;DHT22;38261;54.090;13.382;2023-11-21T02:30:28;6.60;99.90
52321;DHT22;38261;54.090;13.382;2023-11-21T02:31:52;6.60;99.90
52321;DHT22;38261;54.090;13.382;2023-11-21T02:33:16;6.70;99.90
52321;DHT22;38261;54.090;13.382;2023-11-21T02:34:39;6.60;99.90
52321;DHT22;38261;54.090;13.382;2023-11-21T02:36:02;6.70;99.90
52321;DHT22;38261;54.090;13.382;2023-11-21T02:37:24;6.70;99.90
52321;DHT22;38261;54.090;13.382;2023-11-21T02:38:47;6.70;99.90
52321;DHT22;38261;54.090;13.382;2023-11-21T02:40:10;6.70;99.90
52321;DHT22;38261;54.090;13.382;2023-11-21T02:41:34;6.70;99.90
52321;DHT22;38261;54.090;13.382;2023-11-21T02:42:56;6.70;99.90
52321;DHT22;38261;54.090;13.382;2023-11-21T02:44:21;6.70;99.90
52321;DHT22;38261;54.090;13.382;2023-11-21T02:45:43;6.70;99.90
52321;DHT22;38261;54.090;13.382;2023-11-21T02:47:05;6.70;99.90
52321;DHT22;38261;54.090;13.382;2023-11-21T02:48:27;6.70;99.90
52321;DHT22;38261;54.090;13.382;2023-11-21T02:49:51;6.80;99.90
52321;DHT22;38261;54.090;13.382;2023-11-21T02:51:14;6.70;99.90
52321;DHT22;38261;54.090;13.382;2023-11-21T02:52:37;6.80;99.90
52321;DHT22;38261;54.090;13.382;2023-11-21T02:54:02;6.70;99.90
52321;DHT22;38261;54.090;13.382;2023-11-21T02:55:28;6.70;99.90
52321;DHT22;38261;54.090;13.382;2023-11-21T02:56:50;6.70;99.90
52321;DHT22;38261;54.090;13.382;2023-11-21T02:58:12;6.70;99.90
52321;DHT22;38261;54.090;13.382;2023-11-21T02:59:34;6.70;99.90
52321;DHT22;38261;54.090;13.382;2023-11-21T03:00:56;6.70;99.90
52321;DHT22;38261;54.090;13.382;2023-11-21T03:02:19;6.70;99.90
52321;DHT22;38261;54.090;13.382;2023-11-21T03:03:41;6.80;99.90
52321;DHT22;38261;54.090;13.382;2023-11-21T03:05:04;6.70;99.90
52321;DHT22;38261;54.090;13.382;2023-11-21T03:06:26;6.80;99.90
52321;DHT22;38261;54.090;13.382;2023-11-21T03:07:49;6.70;99.90
52321;DHT22;38261;54.090;13.382;2023-11-21T03:09:11;6.80;99.90
52321;DHT22;38261;54.090;13.382;2023-11-21T03:10:38;6.70;99.90
52321;DHT22;38261;54.090;13.382;2023-11-21T03:12:00;6.70;99.90
52321;DHT22;38261;54.090;13.382;2023-11-21T03:13:22;6.80;99.90
52321;DHT22;38261;54.090;13.382;2023-11-21T03:14:44;6.80;99.90
52321;DHT22;38261;54.090;13.382;2023-11-21T03:16:10;6.80;99.90
52321;DHT22;38261;54.090;13.382;2023-11-21T03:17:32;6.80;99.90
52321;DHT22;38261;54.090;13.382;2023-11-21T03:18:58;6.80;99.90
52321;DHT22;38261;54.090;13.382;2023-11-21T03:20:20;6.80;99.90
52321;DHT22;38261;54.090;13.382;2023-11-21T03:21:42;6.80;99.90
52321;DHT22;38261;54.090;13.382;2023-11-21T03:23:05;6.80;99.90
52321;DHT22;38261;54.090;13.382;2023-11-21T03:24:27;6.80;99.90
52321;DHT22;38261;54.090;13.382;2023-11-21T03:25:49;6.80;99.90
52321;DHT22;38261;54.090;13.382;2023-11-21T03:27:11;6.80;99.90
52321;DHT22;38261;54.090;13.382;2023-11-21T03:28:34;6.80;99.90
52321;DHT22;38261;54.090;13.382;2023-11-21T03:29:56;6.80;99.90
52321;DHT22;38261;54.090;13.382;2023-11-21T03:31:18;6.80;99.90
52321;DHT22;38261;54.090;13.382;2023-11-21T03:32:41;6.80;99.90
52321;DHT22;38261;54.090;13.382;2023-11-21T03:34:03;6.70;99.90
52321;DHT22;38261;54.090;13.382;2023-11-21T03:35:26;6.80;99.90
52321;DHT22;38261;54.090;13.382;2023-11-21T03:36:48;6.70;99.90
52321;DHT22;38261;54.090;13.382;2023-11-21T03:38:10;6.70;99.90
52321;DHT22;38261;54.090;13.382;2023-11-21T03:39:32;6.70;99.90
52321;DHT22;38261;54.090;13.382;2023-11-21T03:40:55;6.70;99.90
52321;DHT22;38261;54.090;13.382;2023-11-21T03:42:17;6.70;99.90
52321;DHT22;38261;54.090;13.382;2023-11-21T03:43:39;6.70;99.90
52321;DHT22;38261;54.090;13.382;2023-11-21T03:45:01;6.70;99.90
52321;DHT22;38261;54.090;13.382;2023-11-21T03:46:26;6.70;99.90
52321;DHT22;38261;54.090;13.382;2023-11-21T03:47:48;6.70;99.90
52321;DHT22;38261;54.090;13.382;2023-11-21T03:49:10;6.70;99.90
52321;DHT22;38261;54.090;13.382;2023-11-21T03:50:32;6.70;99.90
52321;DHT22;38261;54.090;13.382;2023-11-21T03:51:56;6.70;99.90
52321;DHT22;38261;54.090;13.382;2023-11-21T03:53:18;6.60;99.90
52321;DHT22;38261;54.090;13.382;2023-11-21T03:54:40;6.60;99.90
52321;DHT22;38261;54.090;13.382;2023-11-21T03:56:03;6.60;99.90
52321;DHT22;38261;54.090;13.382;2023-11-21T03:57:25;6.60;99.90
52321;DHT22;38261;54.090;13.382;2023-11-21T03:58:48;6.60;99.90
52321;DHT22;38261;54.090;13.382;2023-11-21T04:00:13;6.60;99.90
52321;DHT22;38261;54.090;13.382;2023-11-21T04:01:36;6.60;99.90
52321;DHT22;38261;54.090;13.382;2023-11-21T04:02:58;6.60;99.90
52321;DHT22;38261;54.090;13.382;2023-11-21T04:04:20;6.60;99.90
52321;DHT22;38261;54.090;13.382;2023-11-21T04:05:43;6.60;99.90
52321;DHT22;38261;54.090;13.382;2023-11-21T04:07:05;6.60;99.90
52321;DHT22;38261;54.090;13.382;2023-11-21T04:08:27;6.60;99.90
52321;DHT22;38261;54.090;13.382;2023-11-21T04:09:49;6.60;99.90
52321;DHT22;38261;54.090;13.382;2023-11-21T04:11:12;6.60;99.90
52321;DHT22;38261;54.090;13.382;2023-11-21T04:12:35;6.50;99.90
52321;DHT22;38261;54.090;13.382;2023-11-21T04:13:57;6.60;99.90
52321;DHT22;38261;54.090;13.382;2023-11-21T04:15:20;6.50;99.90
52321;DHT22;38261;54.090;13.382;2023-11-21T04:16:42;6.60;99.90
52321;DHT22;38261;54.090;13.382;2023-11-21T04:18:05;6.50;99.90
52321;DHT22;38261;54.090;13.382;2023-11-21T04:19:27;6.50;99.90
52321;DHT22;38261;54.090;13.382;2023-11-21T04:20:49;6.50;99.90
52321;DHT22;38261;54.090;13.382;2023-11-21T04:22:12;6.50;99.90
52321;DHT22;38261;54.090;13.382;2023-11-21T04:23:34;6.50;99.90
52321;DHT22;38261;54.090;13.382;2023-11-21T04:24:56;6.50;99.90
52321;DHT22;38261;54.090;13.382;2023-11-21T04:26:18;6.50;99.90
52321;DHT22;38261;54.090;13.382;2023-11-21T04:27:41;6.50;99.90
52321;DHT22;38261;54.090;13.382;2023-11-21T04:29:05;6.50;99.90
52321;DHT22;38261;54.090;13.382;2023-11-21T04:30:27;6.60;99.90
52321;DHT22;38261;54.090;13.382;2023-11-21T04:31:49;6.50;99.90
52321;DHT22;38261;54.090;13.382;2023-11-21T04:33:12;6.60;99.90
52321;DHT22;38261;54.090;13.382;2023-11-21T04:34:34;6.60;99.90
52321;DHT22;38261;54.090;13.382;2023-11-21T04:35:56;6.60;99.90
52321;DHT22;38261;54.090;13.382;2023-11-21T04:37:18;6.60;99.90
52321;DHT22;38261;54.090;13.382;2023-11-21T04:38:40;6.60;99.90
52321;DHT22;38261;54.090;13.382;2023-11-21T04:40:05;6.60;99.90
52321;DHT22;38261;54.090;13.382;2023-11-21T04:41:30;6.60;99.90
52321;DHT22;38261;54.090;13.382;2023-11-21T04:42:53;6.60;99.90
52321;DHT22;38261;54.090;13.382;2023-11-21T04:44:16;6.60;99.90
52321;DHT22;38261;54.090;13.382;2023-11-21T04:45:38;6.60;99.90
52321;DHT22;38261;54.090;13.382;2023-11-21T04:47:03;6.50;99.90
52321;DHT22;38261;54.090;13.382;2023-11-21T04:48:26;6.60;99.90
52321;DHT22;38261;54.090;13.382;2023-11-21T04:49:48;6.60;99.90
52321;DHT22;38261;54.090;13.382;2023-11-21T04:51:11;6.60;99.90
52321;DHT22;38261;54.090;13.382;2023-11-21T04:52:36;6.60;99.90
52321;DHT22;38261;54.090;13.382;2023-11-21T04:53:58;6.60;99.90
52321;DHT22;38261;54.090;13.382;2023-11-21T04:55:20;6.60;99.90
52321;DHT22;38261;54.090;13.382;2023-11-21T04:56:42;6.60;99.90
52321;DHT22;38261;54.090;13.382;2023-11-21T04:58:04;6.60;99.90
52321;DHT22;38261;54.090;13.382;2023-11-21T04:59:26;6.50;99.90
52321;DHT22;38261;54.090;13.382;2023-11-21T05:00:49;6.50;99.90
52321;DHT22;38261;54.090;13.382;2023-11-21T05:02:11;6.60;99.90
52321;DHT22;38261;54.090;13.382;2023-11-21T05:03:54;6.50;99.90
52321;DHT22;38261;54.090;13.382;2023-11-21T05:05:16;6.60;99.90
52321;DHT22;38261;54.090;13.382;2023-11-21T05:06:38;6.50;99.90
52321;DHT22;38261;54.090;13.382;2023-11-21T05:08:01;6.50;99.90
52321;DHT22;38261;54.090;13.382;2023-11-21T05:09:23;6.60;99.90
52321;DHT22;38261;54.090;13.382;2023-11-21T05:10:46;6.50;99.90
52321;DHT22;38261;54.090;13.382;2023-11-21T05:12:08;6.60;99.90
52321;DHT22;38261;54.090;13.382;2023-11-21T05:13:32;6.50;99.90
52321;DHT22;38261;54.090;13.382;2023-11-21T05:14:55;6.50;99.90
52321;DHT22;38261;54.090;13.382;2023-11-21T05:16:17;6.50;99.90
52321;DHT22;38261;54.090;13.382;2023-11-21T05:17:41;6.50;99.90
52321;DHT22;38261;54.090;13.382;2023-11-21T05:19:07;6.50;99.90
52321;DHT22;38261;54.090;13.382;2023-11-21T05:20:29;6.40;99.90
52321;DHT22;38261;54.090;13.382;2023-11-21T05:21:51;6.40;99.90
52321;DHT22;38261;54.090;13.382;2023-11-21T05:23:13;6.30;99.90
52321;DHT22;38261;54.090;13.382;2023-11-21T05:24:35;6.30;99.90
52321;DHT22;38261;54.090;13.382;2023-11-21T05:25:57;6.30;99.90
52321;DHT22;38261;54.090;13.382;2023-11-21T05:27:19;6.30;99.90
52321;DHT22;38261;54.090;13.382;2023-11-21T05:28:41;6.30;99.90
52321;DHT22;38261;54.090;13.382;2023-11-21T05:30:04;6.30;99.90
52321;DHT22;38261;54.090;13.382;2023-11-21T05:31:34;6.30;99.90
52321;DHT22;38261;54.090;13.382;2023-11-21T05:32:56;6.20;99.90
52321;DHT22;38261;54.090;13.382;2023-11-21T05:34:18;6.20;99.90
52321;DHT22;38261;54.090;13.382;2023-11-21T05:35:42;6.20;99.90
52321;DHT22;38261;54.090;13.382;2023-11-21T05:37:04;6.10;99.90
52321;DHT22;38261;54.090;13.382;2023-11-21T05:38:27;6.10;99.90
52321;DHT22;38261;54.090;13.382;2023-11-21T05:39:49;6.10;99.90
52321;DHT22;38261;54.090;13.382;2023-11-21T05:41:11;6.10;99.90
52321;DHT22;38261;54.090;13.382;2023-11-21T05:42:36;6.00;99.90
52321;DHT22;38261;54.090;13.382;2023-11-21T05:43:59;6.00;99.90
52321;DHT22;38261;54.090;13.382;2023-11-21T05:45:24;6.00;99.90
52321;DHT22;38261;54.090;13.382;2023-11-21T05:46:46;6.00;99.90
52321;DHT22;38261;54.090;13.382;2023-11-21T05:48:08;6.00;99.90
52321;DHT22;38261;54.090;13.382;2023-11-21T05:49:30;6.00;99.90
52321;DHT22;38261;54.090;13.382;2023-11-21T05:50:53;6.00;99.90
52321;DHT22;38261;54.090;13.382;2023-11-21T05:52:15;6.00;99.90
52321;DHT22;38261;54.090;13.382;2023-11-21T05:53:37;6.10;99.90
52321;DHT22;38261;54.090;13.382;2023-11-21T05:54:59;6.10;99.90
52321;DHT22;38261;54.090;13.382;2023-11-21T05:56:21;6.10;99.90
52321;DHT22;38261;54.090;13.382;2023-11-21T05:57:44;6.00;99.90
52321;DHT22;38261;54.090;13.382;2023-11-21T05:59:06;6.10;99.90
52321;DHT22;38261;54.090;13.382;2023-11-21T06:00:29;6.10;99.90
52321;DHT22;38261;54.090;13.382;2023-11-21T06:01:51;6.10;99.90
52321;DHT22;38261;54.090;13.382;2023-11-21T06:03:14;6.10;99.90
52321;DHT22;38261;54.090;13.382;2023-11-21T06:04:36;6.10;99.90
52321;DHT22;38261;54.090;13.382;2023-11-21T06:05:59;6.10;99.90
52321;DHT22;38261;54.090;13.382;2023-11-21T06:07:21;6.10;99.90
52321;DHT22;38261;54.090;13.382;2023-11-21T06:08:43;6.00;99.90
52321;DHT22;38261;54.090;13.382;2023-11-21T06:10:07;6.00;99.90
52321;DHT22;38261;54.090;13.382;2023-11-21T06:11:33;6.00;99.90
52321;DHT22;38261;54.090;13.382;2023-11-21T06:12:55;6.00;99.90
52321;DHT22;38261;54.090;13.382;2023-11-21T06:14:17;6.00;99.90
52321;DHT22;38261;54.090;13.382;2023-11-21T06:15:40;5.90;99.90
52321;DHT22;38261;54.090;13.382;2023-11-21T06:17:02;6.00;99.90
52321;DHT22;38261;54.090;13.382;2023-11-21T06:18:25;6.00;99.90
52321;DHT22;38261;54.090;13.382;2023-11-21T06:19:47;6.00;99.90
52321;DHT22;38261;54.090;13.382;2023-11-21T06:21:12;6.00;99.90
52321;DHT22;38261;54.090;13.382;2023-11-21T06:22:39;6.00;99.90
52321;DHT22;38261;54.090;13.382;2023-11-21T06:24:02;6.00;99.90
52321;DHT22;38261;54.090;13.382;2023-11-21T06:25:24;5.90;99.90
52321;DHT22;38261;54.090;13.382;2023-11-21T06:26:46;6.00;99.90
52321;DHT22;38261;54.090;13.382;2023-11-21T06:28:10;6.00;99.90
52321;DHT22;38261;54.090;13.382;2023-11-21T06:29:32;6.00;99.90
52321;DHT22;38261;54.090;13.382;2023-11-21T06:30:54;6.00;99.90
52321;DHT22;38261;54.090;13.382;2023-11-21T06:32:16;5.90;99.90
52321;DHT22;38261;54.090;13.382;2023-11-21T06:33:40;5.90;99.90
52321;DHT22;38261;54.090;13.382;2023-11-21T06:35:03;5.80;99.90
52321;DHT22;38261;54.090;13.382;2023-11-21T06:36:26;5.90;99.90
52321;DHT22;38261;54.090;13.382;2023-11-21T06:37:48;5.90;99.90
52321;DHT22;38261;54.090;13.382;2023-11-21T06:39:12;5.80;99.90
52321;DHT22;38261;54.090;13.382;2023-11-21T06:40:36;5.80;99.90
52321;DHT22;38261;54.090;13.382;2023-11-21T06:41:59;5.80;99.90
52321;DHT22;38261;54.090;13.382;2023-11-21T06:43:22;5.80;99.90
52321;DHT22;38261;54.090;13.382;2023-11-21T06:44:44;5.70;99.90
52321;DHT22;38261;54.090;13.382;2023-11-21T06:46:06;5.70;99.90
52321;DHT22;38261;54.090;13.382;2023-11-21T06:47:28;5.70;99.90
52321;DHT22;38261;54.090;13.382;2023-11-21T06:48:52;5.60;99.90
52321;DHT22;38261;54.090;13.382;2023-11-21T06:50:14;5.60;99.90
52321;DHT22;38261;54.090;13.382;2023-11-21T06:51:36;5.50;99.90
52321;DHT22;38261;54.090;13.382;2023-11-21T06:52:58;5.50;99.90
52321;DHT22;38261;54.090;13.382;2023-11-21T06:54:20;5.50;99.90
52321;DHT22;38261;54.090;13.382;2023-11-21T06:55:43;5.50;99.90
52321;DHT22;38261;54.090;13.382;2023-11-21T06:57:05;5.40;99.90
52321;DHT22;38261;54.090;13.382;2023-11-21T06:58:27;5.40;99.90
52321;DHT22;38261;54.090;13.382;2023-11-21T06:59:50;5.50;99.90
52321;DHT22;38261;54.090;13.382;2023-11-21T07:01:14;5.40;99.90
52321;DHT22;38261;54.090;13.382;2023-11-21T07:02:37;5.40;99.90
52321;DHT22;38261;54.090;13.382;2023-11-21T07:04:00;5.40;99.90
52321;DHT22;38261;54.090;13.382;2023-11-21T07:05:23;5.40;99.90
52321;DHT22;38261;54.090;13.382;2023-11-21T07:06:45;5.30;99.90
52321;DHT22;38261;54.090;13.382;2023-11-21T07:08:07;5.30;99.90
52321;DHT22;38261;54.090;13.382;2023-11-21T07:09:29;5.30;99.90
52321;DHT22;38261;54.090;13.382;2023-11-21T07:10:52;5.20;99.90
52321;DHT22;38261;54.090;13.382;2023-11-21T07:12:15;5.20;99.90
52321;DHT22;38261;54.090;13.382;2023-11-21T07:13:37;5.20;99.90
52321;DHT22;38261;54.090;13.382;2023-11-21T07:14:59;5.20;99.90
52321;DHT22;38261;54.090;13.382;2023-11-21T07:16:22;5.10;99.90
52321;DHT22;38261;54.090;13.382;2023-11-21T07:17:45;5.10;99.90
52321;DHT22;38261;54.090;13.382;2023-11-21T07:19:08;5.10;99.90
52321;DHT22;38261;54.090;13.382;2023-11-21T07:20:30;5.20;99.90
52321;DHT22;38261;54.090;13.382;2023-11-21T07:21:53;5.10;99.90
52321;DHT22;38261;54.090;13.382;2023-11-21T07:23:15;5.10;99.90
52321;DHT22;38261;54.090;13.382;2023-11-21T07:24:37;5.10;99.90
52321;DHT22;38261;54.090;13.382;2023-11-21T07:25:59;5.10;99.90
52321;DHT22;38261;54.090;13.382;2023-11-21T07:27:22;5.10;99.90
52321;DHT22;38261;54.090;13.382;2023-11-21T07:28:44;5.10;99.90
52321;DHT22;38261;54.090;13.382;2023-11-21T07:30:07;5.10;99.90
52321;DHT22;38261;54.090;13.382;2023-11-21T07:31:32;5.10;99.90
52321;DHT22;38261;54.090;13.382;2023-11-21T07:32:56;5.10;99.90
52321;DHT22;38261;54.090;13.382;2023-11-21T07:34:20;5.10;99.90
52321;DHT22;38261;54.090;13.382;2023-11-21T07:35:42;5.10;99.90
52321;DHT22;38261;54.090;13.382;2023-11-21T07:37:04;5.20;99.90
52321;DHT22;38261;54.090;13.382;2023-11-21T07:38:27;5.10;99.90
52321;DHT22;38261;54.090;13.382;2023-11-21T07:39:50;5.20;99.90
52321;DHT22;38261;54.090;13.382;2023-11-21T07:41:17;5.20;99.90
52321;DHT22;38261;54.090;13.382;2023-11-21T07:42:52;5.20;99.90
52321;DHT22;38261;54.090;13.382;2023-11-21T07:44:15;5.30;99.90
52321;DHT22;38261;54.090;13.382;2023-11-21T07:45:38;5.30;99.90
52321;DHT22;38261;54.090;13.382;2023-11-21T07:47:00;5.30;99.90
52321;DHT22;38261;54.090;13.382;2023-11-21T07:48:22;5.40;99.90
52321;DHT22;38261;54.090;13.382;2023-11-21T07:49:45;5.40;99.90
52321;DHT22;38261;54.090;13.382;2023-11-21T07:51:09;5.40;99.90
52321;DHT22;38261;54.090;13.382;2023-11-21T07:52:31;5.40;99.90
52321;DHT22;38261;54.090;13.382;2023-11-21T07:53:54;5.40;99.90
52321;DHT22;38261;54.090;13.382;2023-11-21T07:55:17;5.40;99.90
52321;DHT22;38261;54.090;13.382;2023-11-21T07:56:39;5.40;99.90
52321;DHT22;38261;54.090;13.382;2023-11-21T07:58:02;5.40;99.90
52321;DHT22;38261;54.090;13.382;2023-11-21T07:59:25;5.40;99.90
52321;DHT22;38261;54.090;13.382;2023-11-21T08:00:47;5.40;99.90
52321;DHT22;38261;54.090;13.382;2023-11-21T08:02:09;5.50;99.90
52321;DHT22;38261;54.090;13.382;2023-11-21T08:03:32;5.50;99.90
52321;DHT22;38261;54.090;13.382;2023-11-21T08:04:54;5.50;99.90
52321;DHT22;38261;54.090;13.382;2023-11-21T08:06:19;5.50;99.90
52321;DHT22;38261;54.090;13.382;2023-11-21T08:07:41;5.50;99.90
52321;DHT22;38261;54.090;13.382;2023-11-21T08:09:03;5.60;99.90
52321;DHT22;38261;54.090;13.382;2023-11-21T08:10:25;5.60;99.90
52321;DHT22;38261;54.090;13.382;2023-11-21T08:11:48;5.60;99.90
52321;DHT22;38261;54.090;13.382;2023-11-21T08:13:10;5.60;99.90
52321;DHT22;38261;54.090;13.382;2023-11-21T08:14:36;5.70;99.90
52321;DHT22;38261;54.090;13.382;2023-11-21T08:16:00;5.70;99.90
52321;DHT22;38261;54.090;13.382;2023-11-21T08:17:27;5.70;99.90
52321;DHT22;38261;54.090;13.382;2023-11-21T08:18:49;5.70;99.90
52321;DHT22;38261;54.090;13.382;2023-11-21T08:20:11;5.70;99.90
52321;DHT22;38261;54.090;13.382;2023-11-21T08:21:34;5.70;99.90
52321;DHT22;38261;54.090;13.382;2023-11-21T08:22:56;5.70;99.90
52321;DHT22;38261;54.090;13.382;2023-11-21T08:24:19;5.70;99.90
52321;DHT22;38261;54.090;13.382;2023-11-21T08:25:42;5.70;99.90
52321;DHT22;38261;54.090;13.382;2023-11-21T08:27:04;5.70;99.90
52321;DHT22;38261;54.090;13.382;2023-11-21T08:28:28;5.70;99.90
52321;DHT22;38261;54.090;13.382;2023-11-21T08:29:50;5.70;99.90
52321;DHT22;38261;54.090;13.382;2023-11-21T08:31:14;5.70;99.90
52321;DHT22;38261;54.090;13.382;2023-11-21T08:32:37;5.70;99.90
52321;DHT22;38261;54.090;13.382;2023-11-21T08:33:59;5.70;99.90
52321;DHT22;38261;54.090;13.382;2023-11-21T08:35:24;5.70;99.90
52321;DHT22;38261;54.090;13.382;2023-11-21T08:36:46;5.70;99.90
52321;DHT22;38261;54.090;13.382;2023-11-21T08:38:09;5.80;99.90
52321;DHT22;38261;54.090;13.382;2023-11-21T08:39:32;5.70;99.90
52321;DHT22;38261;54.090;13.382;2023-11-21T08:40:54;5.80;99.90
52321;DHT22;38261;54.090;13.382;2023-11-21T08:42:16;5.80;99.90
52321;DHT22;38261;54.090;13.382;2023-11-21T08:43:39;5.80;99.90